• Join FlightAware (Why Join?)
  • Login
  • US Flag 
06:35PM EDT


 

Airport Tracker/Info


-or-


 

Live Flight TrackerFlight Track Log ✈ SWA1535 ✈ 01-May-2013 ✈ KFLL - KMDW

Flight Track Log - Related Links

Times and Time Zones

All times are in EDT time to prevent confusion due to time zone crossing. See the SWA1535 flight status page for this flight to view local times or setup timezone preferences in your user account.

Time Position Orientation Groundspeed Altitude Reporting Facility
EDT Latitude Longitude Course Direction KTS MPH feet Rate Location/Type
06:45AM 26.0775 -80.1158 81° East 185 213 1,800  Level Miami Center
06:46AM 26.0875 -80.0469 81° East 212 244 4,800 2,940 Climbing Miami Center
06:46AM 26.1272 -80.0364 13° North 218 251 7,100 2,760 Climbing Miami Center
06:47AM 26.1553 -80.0972 297° West 230 265 9,500 2,160 Climbing Miami Center
06:48AM 26.1994 -80.1703 304° West 253 291 11,500 2,040 Climbing Miami Center
06:49AM 26.2539 -80.2550 306° West 301 346 13,600 2,640 Climbing Miami Center
06:50AM 26.3081 -80.3469 303° West 350 403 16,800 2,700 Climbing Miami Center
06:51AM 26.3564 -80.4272 304° West 356 410 19,000 1,740 Climbing Miami Center
06:52AM 26.4206 -80.5314 305° West 356 410 20,300 1,140 Climbing Miami Center
06:53AM 26.4747 -80.6164 305° West 367 422 21,300 1,320 Climbing Miami Center
06:54AM 26.5558 -80.7097 314° West 373 429 23,000 1,200 Climbing Miami Center
06:55AM 26.6481 -80.7753 328° Northwest 386 444 23,800 1,500 Climbing Miami Center
06:56AM 26.7319 -80.8386 326° Northwest 398 458 26,100 2,160 Climbing Miami Center
06:57AM 26.8361 -80.9236 324° Northwest 422 486 28,200 1,860 Climbing Miami Center
06:58AM 26.9383 -80.9994 327° Northwest 422 486 29,900 1,800 Climbing Miami Center
06:59AM 27.0428 -81.0753 327° Northwest 434 499 31,800 2,160 Climbing Miami Center
07:00AM 27.1450 -81.1514 326° Northwest 434 499 34,300 2,340 Climbing Miami Center
07:01AM 27.2408 -81.2250 326° Northwest 434 499 36,500 1,860 Climbing Miami Center
07:02AM 27.3453 -81.2897 331° Northwest 428 493 38,100 1,500 Climbing Miami Center
07:03AM 27.4497 -81.3547 331° Northwest 418 481 39,500 900 Climbing Miami Center
07:04AM 27.5503 -81.4125 333° Northwest 408 470 40,000 240 Climbing Miami Center
07:05AM 27.6483 -81.4750 331° Northwest 403 464 40,000  Level Miami Center
07:06AM 27.7406 -81.5278 333° Northwest 403 464 40,000  Level Miami Center
07:07AM 27.8511 -81.5981 331° Northwest 403 464 40,000  Level Miami Center
07:09AM 28.0233 -81.7031 332° Northwest 409 471 40,000  Level Jacksonville Center
07:10AM 28.1242 -81.7631 332° Northwest 409 471 40,000  Level Jacksonville Center
07:11AM 28.2269 -81.8278 331° Northwest 414 476 40,000  Level Jacksonville Center
07:12AM 28.3297 -81.8928 331° Northwest 419 482 40,000  Level Jacksonville Center
07:13AM 28.4344 -81.9553 332° Northwest 419 482 40,000  Level Jacksonville Center
07:14AM 28.5578 -81.9919 345° North 429 494 40,000  Level Jacksonville Center
07:15AM 28.6708 -82.0289 344° North 429 494 40,000  Level Jacksonville Center
07:16AM 28.7881 -82.0681 344° North 429 494 40,000  Level Jacksonville Center
07:17AM 28.9031 -82.1053 344° North 429 494 40,000  Level Jacksonville Center
07:18AM 29.0181 -82.1469 342° North 429 494 40,000  Level Jacksonville Center
07:19AM 29.1353 -82.1864 344° North 429 494 40,000  Level Jacksonville Center
07:20AM 29.2503 -82.2261 343° North 429 494 40,000  Level Jacksonville Center
07:21AM 29.3653 -82.2658 343° North 429 494 40,000  Level Jacksonville Center
07:22AM 29.4822 -82.3033 344° North 429 494 40,000  Level Jacksonville Center
07:23AM 29.6119 -82.3481 343° North 435 501 40,000  Level Jacksonville Center
07:24AM 29.7269 -82.3881 343° North 435 501 40,000  Level Jacksonville Center
07:25AM 29.8439 -82.4256 344° North 435 501 40,000  Level Jacksonville Center
07:26AM 29.9611 -82.4683 342° North 435 501 40,000  Level Jacksonville Center
07:27AM 30.0800 -82.5108 343° North 440 506 40,000  Level Jacksonville Center
07:28AM 30.1847 -82.5489 343° North 440 506 40,000  Level Jacksonville Center
07:29AM 30.2994 -82.5894 343° North 440 506 40,000  Level Jacksonville Center
07:30AM 30.4208 -82.6300 344° North 440 506 40,000  Level Jacksonville Center
07:31AM 30.5503 -82.6731 344° North 440 506 40,000  Level Jacksonville Center
07:32AM 30.6547 -82.7164 340° North 440 506 40,000  Level Jacksonville Center
07:33AM 30.7717 -82.7547 344° North 440 506 40,000  Level Jacksonville Center
07:34AM 30.8908 -82.7981 343° North 440 506 40,000  Level Jacksonville Center
07:35AM 31.0078 -82.8369 344° North 440 506 40,000  Level Jacksonville Center
07:36AM 31.1225 -82.8756 344° North 435 501 40,000  Level Jacksonville Center
07:38AM 31.3264 -82.9522 342° North 440 506 40,000  Level Atlanta Center
07:39AM 31.4436 -82.9922 344° North 435 501 40,000  Level Atlanta Center
07:40AM 31.5567 -83.0325 343° North 430 495 40,000  Level Atlanta Center
07:41AM 31.6678 -83.0725 343° North 424 488 40,000  Level Atlanta Center
07:42AM 31.7847 -83.1128 344° North 424 488 40,000  Level Atlanta Center
07:43AM 31.8978 -83.1533 343° North 424 488 40,000  Level Atlanta Center
07:44AM 32.0256 -83.2011 342° North 430 495 40,000  Level Atlanta Center
07:45AM 32.1406 -83.2417 343° North 430 495 40,000  Level Atlanta Center
07:46AM 32.2536 -83.2850 342° North 430 495 40,000  Level Atlanta Center
07:47AM 32.3708 -83.3256 344° North 430 495 40,000  Level Atlanta Center
07:48AM 32.4836 -83.3692 342° North 424 488 40,000  Level Atlanta Center
07:49AM 32.5986 -83.4100 343° North 424 488 40,000  Level Atlanta Center
07:50AM 32.7117 -83.4514 343° North 424 488 40,000  Level Atlanta Center
07:51AM 32.8267 -83.4950 342° North 424 488 40,000  Level Atlanta Center
07:52AM 32.9375 -83.5389 342° North 424 488 40,000  Level Atlanta Center
07:53AM 33.0525 -83.5778 344° North 424 488 40,000  Level Atlanta Center
07:54AM 33.1547 -83.6144 343° North 423 487 40,000 -180 Level Atlanta Center
07:55AM 33.2697 -83.6561 343° North 423 487 39,700 -660 Descending Atlanta Center
07:56AM 33.3931 -83.7053 342° North 428 493 38,700 -960 Descending Atlanta Center
07:57AM 33.5100 -83.7497 342° North 428 493 37,800 -960 Descending Atlanta Center
07:58AM 33.6250 -83.7919 343° North 423 487 36,800 -1,200 Descending Atlanta Center
07:59AM 33.7397 -83.8339 343° North 423 487 35,500 -900 Descending Atlanta Center
08:00AM 33.8567 -83.8786 342° North 423 487 35,000 -300 Descending Atlanta Center
08:01AM 33.9736 -83.9211 343° North 423 487 35,000  Level Atlanta Center
08:02AM 34.0886 -83.9661 342° North 428 493 35,000  Level Atlanta Center
08:03AM 34.2056 -84.0111 342° North 433 498 35,000  Level Atlanta Center
08:04AM 34.3222 -84.0539 343° North 438 504 35,000  Level Atlanta Center
08:05AM 34.4350 -84.0992 342° North 433 498 35,000  Level Atlanta Center
08:06AM 34.5519 -84.1447 342° North 433 498 35,000  Level Atlanta Center
08:07AM 34.6458 -84.1803 343° North 440 506 35,000  Level Atlanta Center
08:08AM 34.7856 -84.2311 343° North 440 506 35,000  Level Atlanta Center
08:09AM 34.9003 -84.2769 342° North 440 506 35,000  Level Atlanta Center
08:10AM 35.0022 -84.3203 341° North 440 506 35,000  Level Atlanta Center
08:11AM 35.1192 -84.3664 342° North 435 501 35,000  Level Atlanta Center
08:12AM 35.2378 -84.4125 342° North 440 506 35,000  Level Atlanta Center
08:13AM 35.3544 -84.4589 342° North 445 512 35,000  Level Atlanta Center
08:14AM 35.4711 -84.5028 343° North 439 505 35,000  Level Atlanta Center
08:15AM 35.5900 -84.5494 342° North 444 511 35,000  Level Atlanta Center
08:16AM 35.7044 -84.5936 343° North 439 505 35,000 -360 Level Atlanta Center
08:18AM 35.9636 -84.6969 342° North 448 516 34,000 -360 Descending Indianapolis Center
08:19AM 36.0803 -84.7436 342° North 448 516 34,000  Level Indianapolis Center
08:20AM 36.1975 -84.7919 342° North 449 517 34,000  Level Indianapolis Center
08:21AM 36.3142 -84.8383 342° North 444 511 34,000  Level Indianapolis Center
08:22AM 36.4325 -84.8858 342° North 447 514 34,000  Level Indianapolis Center
08:23AM 36.5728 -84.9428 342° North 444 511 34,000  Level Indianapolis Center
08:24AM 36.6894 -84.9906 342° North 442 509 34,000  Level Indianapolis Center
08:25AM 36.8075 -85.0389 342° North 445 512 34,000  Level Indianapolis Center
08:26AM 36.9225 -85.0856 342° North 435 501 34,000  Level Indianapolis Center
08:27AM 37.0375 -85.1331 342° North 440 506 34,000  Level Indianapolis Center
08:28AM 37.1536 -85.1797 342° North 437 503 34,000  Level Indianapolis Center
08:29AM 37.2869 -85.2347 342° North 435 501 34,000  Level Indianapolis Center
08:30AM 37.4053 -85.2719 346° North 439 505 34,000  Level Indianapolis Center
08:31AM 37.5244 -85.3014 349° North 438 504 34,000  Level Indianapolis Center
08:32AM 37.6444 -85.3306 349° North 438 504 34,000  Level Indianapolis Center
08:34AM 37.7628 -85.3600 349° North 436 502 34,000  Level Indianapolis Center
08:35AM 37.8761 -85.3864 350° North 441 507 34,000  Level Indianapolis Center
08:36AM 38.0219 -85.4228 349° North 444 511 34,000  Level Indianapolis Center
08:37AM 38.1450 -85.4508 350° North 447 514 34,000  Level Indianapolis Center
08:38AM 38.2669 -85.4817 349° North 447 514 34,000  Level Indianapolis Center
08:39AM 38.3881 -85.5106 349° North 445 512 34,000  Level Indianapolis Center
08:40AM 38.5108 -85.5428 348° North 448 516 34,000  Level Indianapolis Center
08:41AM 38.6428 -85.5750 349° North 446 513 34,000  Level Indianapolis Center
08:42AM 38.7653 -85.6050 349° North 445 512 34,000  Level Indianapolis Center
08:43AM 38.8867 -85.6372 348° North 443 510 34,000  Level Indianapolis Center
08:44AM 39.0086 -85.6664 349° North 443 510 34,000 -420 Level Indianapolis Center
08:45AM 39.1289 -85.6967 349° North 439 505 33,200 -1,200 Descending Indianapolis Center
08:46AM 39.2694 -85.7336 348° North 439 505 31,600 -1,860 Descending Indianapolis Center
08:47AM 39.3867 -85.7625 349° North 432 497 29,500 -1,320 Descending Indianapolis Center
08:48AM 39.5031 -85.7917 349° North 426 490 29,000 -300 Descending Indianapolis Center
08:49AM 39.6200 -85.8397 342° North 437 503 29,000 -300 Level Indianapolis Center
08:50AM 39.7369 -85.8878 342° North 440 506 28,500 -780 Descending Indianapolis Center
08:51AM 39.8519 -85.9344 343° North 435 501 27,500 -1,080 Descending Indianapolis Center
08:52AM 39.9833 -85.9883 343° North 426 490 26,300 -1,080 Descending Indianapolis Center
08:53AM 40.0950 -86.0350 342° North 423 487 25,300 -960 Descending Indianapolis Center
08:54AM 40.1689 -86.0636 344° North 420 483 24,600 -960 Descending Chicago Center
08:55AM 40.2792 -86.1092 343° North 415 478 23,600 -1,080 Descending Chicago Center
08:56AM 40.4031 -86.1603 343° North 400 460 22,400 -1,080 Descending Chicago Center
08:57AM 40.5103 -86.2053 342° North 402 463 21,400 -1,020 Descending Chicago Center
08:58AM 40.6169 -86.2497 342° North 400 460 20,300 -1,500 Descending Chicago Center
08:59AM 40.7111 -86.2900 342° North 387 445 18,400 -1,920 Descending Chicago Center
09:00AM 40.8081 -86.3314 342° North 367 422 16,400 -2,040 Descending Chicago Center
09:01AM 40.9047 -86.3722 342° North 363 418 14,200 -2,340 Descending Chicago Center
09:02AM 41.0189 -86.4200 342° North 359 413 11,600 -1,620 Descending Chicago Center
09:03AM 41.0947 -86.5011 321° Northwest 361 415 10,900 -840 Descending Chicago Center
09:04AM 41.1578 -86.6019 310° West 354 407 10,000 -420 Descending Chicago Center
09:05AM 41.2219 -86.7008 311° West 352 405 10,100  Climbing Chicago Center
09:06AM 41.2919 -86.8097 311° West 351 404 10,100 -60 Level Chicago Center
09:07AM 41.3531 -86.9047 311° West 345 397 10,000 -540 Descending Chicago Center
09:08AM 41.4092 -86.9917 311° West 319 367 9,100 -1,320 Descending Chicago Center
09:09AM 41.4647 -87.0775 311° West 310 357 7,300 -1,620 Descending Chicago Center
09:10AM 41.5172 -87.1839 303° West 299 344 5,900 -660 Descending Chicago Center
09:11AM 41.5247 -87.2822 276° West 272 313 6,000 -180 Climbing Chicago Center
09:12AM 41.5397 -87.3808 282° West 272 313 5,600 -720 Descending Chicago Center
09:13AM 41.5828 -87.4619 305° West 275 316 4,600 -840 Descending Chicago Center
09:14AM 41.6269 -87.5347 309° West 262 302 3,900 -360 Descending Chicago Center
09:15AM 41.6694 -87.5897 316° Northwest 237 273 3,900 -660 Level Chicago Center
09:16AM 41.7167 -87.6500 316° Northwest 205 236 2,700 -960 Descending Chicago TRACON
09:17AM 41.7500 -87.6833 323° Northwest 206 237 2,200 -540 Descending Chicago TRACON
09:18AM 41.8000 -87.6667 14° North 167 192 1,700 -480 Descending Chicago TRACON
09:19AM 41.8167 -87.7167 294° West 115 132 1,300 -420 Descending Chicago TRACON